sensor_id;sensor_type;location;lat;lon;timestamp;temperature;humidity
11043;DHT22;5574;48.786;10.120;2023-12-04T00:02:24;-3.20;99.90
11043;DHT22;5574;48.786;10.120;2023-12-04T00:04:51;-3.20;99.90
11043;DHT22;5574;48.786;10.120;2023-12-04T00:07:18;-3.20;99.90
11043;DHT22;5574;48.786;10.120;2023-12-04T00:09:44;-3.20;99.90
11043;DHT22;5574;48.786;10.120;2023-12-04T00:12:11;-3.20;99.90
11043;DHT22;5574;48.786;10.120;2023-12-04T00:14:38;-3.20;99.90
11043;DHT22;5574;48.786;10.120;2023-12-04T00:17:06;-3.30;99.90
11043;DHT22;5574;48.786;10.120;2023-12-04T00:19:32;-3.30;99.90
11043;DHT22;5574;48.786;10.120;2023-12-04T00:21:59;-3.30;99.90
11043;DHT22;5574;48.786;10.120;2023-12-04T00:24:26;-3.30;99.90
11043;DHT22;5574;48.786;10.120;2023-12-04T00:26:52;-3.30;99.90
11043;DHT22;5574;48.786;10.120;2023-12-04T00:29:19;-3.30;99.90
11043;DHT22;5574;48.786;10.120;2023-12-04T00:31:46;-3.30;99.90
11043;DHT22;5574;48.786;10.120;2023-12-04T00:34:14;-3.30;99.90
11043;DHT22;5574;48.786;10.120;2023-12-04T00:36:41;-3.30;99.90
11043;DHT22;5574;48.786;10.120;2023-12-04T00:39:07;-3.40;99.90
11043;DHT22;5574;48.786;10.120;2023-12-04T00:41:34;-3.40;99.90
11043;DHT22;5574;48.786;10.120;2023-12-04T00:44:01;-3.40;99.90
11043;DHT22;5574;48.786;10.120;2023-12-04T00:46:27;-3.40;99.90
11043;DHT22;5574;48.786;10.120;2023-12-04T00:48:54;-3.50;99.90
11043;DHT22;5574;48.786;10.120;2023-12-04T00:51:22;-3.50;99.90
11043;DHT22;5574;48.786;10.120;2023-12-04T00:53:49;-3.60;99.90
11043;DHT22;5574;48.786;10.120;2023-12-04T00:56:15;-3.60;99.90
11043;DHT22;5574;48.786;10.120;2023-12-04T00:58:44;-3.60;99.90
11043;DHT22;5574;48.786;10.120;2023-12-04T01:01:10;-3.70;99.90
11043;DHT22;5574;48.786;10.120;2023-12-04T01:03:37;-3.70;99.90
11043;DHT22;5574;48.786;10.120;2023-12-04T01:06:04;-3.70;99.90
11043;DHT22;5574;48.786;10.120;2023-12-04T01:08:33;-3.80;99.90
11043;DHT22;5574;48.786;10.120;2023-12-04T01:10:59;-3.80;99.90
11043;DHT22;5574;48.786;10.120;2023-12-04T01:13:26;-3.80;99.90
11043;DHT22;5574;48.786;10.120;2023-12-04T01:15:53;-3.90;99.90
11043;DHT22;5574;48.786;10.120;2023-12-04T01:18:19;-3.90;99.90
11043;DHT22;5574;48.786;10.120;2023-12-04T01:20:46;-3.90;99.90
11043;DHT22;5574;48.786;10.120;2023-12-04T01:23:13;-3.90;99.90
11043;DHT22;5574;48.786;10.120;2023-12-04T01:25:41;-3.90;99.90
11043;DHT22;5574;48.786;10.120;2023-12-04T01:28:07;-3.90;99.90
11043;DHT22;5574;48.786;10.120;2023-12-04T01:30:34;-4.00;99.90
11043;DHT22;5574;48.786;10.120;2023-12-04T01:33:01;-4.00;99.90
11043;DHT22;5574;48.786;10.120;2023-12-04T01:35:27;-4.00;99.90
11043;DHT22;5574;48.786;10.120;2023-12-04T01:37:54;-4.00;99.90
11043;DHT22;5574;48.786;10.120;2023-12-04T01:40:21;-4.00;99.90
11043;DHT22;5574;48.786;10.120;2023-12-04T01:42:49;-4.00;99.90
11043;DHT22;5574;48.786;10.120;2023-12-04T01:45:16;-4.00;99.90
11043;DHT22;5574;48.786;10.120;2023-12-04T01:47:42;-4.00;99.90
11043;DHT22;5574;48.786;10.120;2023-12-04T01:50:10;-4.00;99.90
11043;DHT22;5574;48.786;10.120;2023-12-04T01:52:37;-4.00;99.90
11043;DHT22;5574;48.786;10.120;2023-12-04T01:55:05;-3.90;99.90
11043;DHT22;5574;48.786;10.120;2023-12-04T01:57:32;-3.90;99.90
11043;DHT22;5574;48.786;10.120;2023-12-04T02:00:00;-3.90;99.90
11043;DHT22;5574;48.786;10.120;2023-12-04T02:02:27;-3.90;99.90
11043;DHT22;5574;48.786;10.120;2023-12-04T02:04:55;-3.90;99.90
11043;DHT22;5574;48.786;10.120;2023-12-04T02:07:22;-4.00;99.90
11043;DHT22;5574;48.786;10.120;2023-12-04T02:09:49;-4.00;99.90
11043;DHT22;5574;48.786;10.120;2023-12-04T02:12:17;-4.00;99.90
11043;DHT22;5574;48.786;10.120;2023-12-04T02:14:43;-4.00;99.90
11043;DHT22;5574;48.786;10.120;2023-12-04T02:17:12;-4.00;99.90
11043;DHT22;5574;48.786;10.120;2023-12-04T02:19:40;-4.00;99.90
11043;DHT22;5574;48.786;10.120;2023-12-04T02:22:06;-4.00;99.90
11043;DHT22;5574;48.786;10.120;2023-12-04T02:24:34;-4.00;99.90
11043;DHT22;5574;48.786;10.120;2023-12-04T02:27:07;-4.00;99.90
11043;DHT22;5574;48.786;10.120;2023-12-04T02:29:39;-4.00;99.90
11043;DHT22;5574;48.786;10.120;2023-12-04T02:32:10;-4.00;99.90
11043;DHT22;5574;48.786;10.120;2023-12-04T02:34:40;-4.00;99.90
11043;DHT22;5574;48.786;10.120;2023-12-04T02:37:08;-4.00;99.90
11043;DHT22;5574;48.786;10.120;2023-12-04T02:39:37;-4.00;99.90
11043;DHT22;5574;48.786;10.120;2023-12-04T02:42:04;-4.00;99.90
11043;DHT22;5574;48.786;10.120;2023-12-04T02:44:31;-4.00;99.90
11043;DHT22;5574;48.786;10.120;2023-12-04T02:46:57;-4.10;99.80
11043;DHT22;5574;48.786;10.120;2023-12-04T02:49:24;-4.10;99.90
11043;DHT22;5574;48.786;10.120;2023-12-04T02:51:51;-4.10;99.80
11043;DHT22;5574;48.786;10.120;2023-12-04T02:54:17;-4.10;99.80
11043;DHT22;5574;48.786;10.120;2023-12-04T02:56:45;-4.20;99.90
11043;DHT22;5574;48.786;10.120;2023-12-04T02:59:12;-4.20;99.90
11043;DHT22;5574;48.786;10.120;2023-12-04T03:01:39;-4.20;99.90
11043;DHT22;5574;48.786;10.120;2023-12-04T03:04:05;-4.20;99.90
11043;DHT22;5574;48.786;10.120;2023-12-04T03:06:32;-4.20;99.40
11043;DHT22;5574;48.786;10.120;2023-12-04T03:08:59;-4.20;99.40
11043;DHT22;5574;48.786;10.120;2023-12-04T03:11:25;-4.30;99.40
11043;DHT22;5574;48.786;10.120;2023-12-04T03:13:53;-4.30;99.90
11043;DHT22;5574;48.786;10.120;2023-12-04T03:16:20;-4.30;99.90
11043;DHT22;5574;48.786;10.120;2023-12-04T03:18:47;-4.30;99.90
11043;DHT22;5574;48.786;10.120;2023-12-04T03:21:14;-4.30;99.90
11043;DHT22;5574;48.786;10.120;2023-12-04T03:23:40;-4.20;99.90
11043;DHT22;5574;48.786;10.120;2023-12-04T03:26:07;-4.20;99.90
11043;DHT22;5574;48.786;10.120;2023-12-04T03:28:34;-4.20;99.90
11043;DHT22;5574;48.786;10.120;2023-12-04T03:31:02;-4.10;99.90
11043;DHT22;5574;48.786;10.120;2023-12-04T03:33:28;-4.10;99.80
11043;DHT22;5574;48.786;10.120;2023-12-04T03:35:55;-4.10;99.70
11043;DHT22;5574;48.786;10.120;2023-12-04T03:38:22;-4.10;99.90
11043;DHT22;5574;48.786;10.120;2023-12-04T03:40:48;-4.10;99.50
11043;DHT22;5574;48.786;10.120;2023-12-04T03:43:15;-4.10;99.90
11043;DHT22;5574;48.786;10.120;2023-12-04T03:45:42;-4.10;99.50
11043;DHT22;5574;48.786;10.120;2023-12-04T03:48:10;-4.20;99.80
11043;DHT22;5574;48.786;10.120;2023-12-04T03:50:37;-4.20;99.90
11043;DHT22;5574;48.786;10.120;2023-12-04T03:53:03;-4.20;99.90
11043;DHT22;5574;48.786;10.120;2023-12-04T03:55:30;-4.20;99.90
11043;DHT22;5574;48.786;10.120;2023-12-04T03:57:57;-4.20;99.90
11043;DHT22;5574;48.786;10.120;2023-12-04T04:00:24;-4.30;99.80
11043;DHT22;5574;48.786;10.120;2023-12-04T04:02:51;-4.30;99.90
11043;DHT22;5574;48.786;10.120;2023-12-04T04:05:19;-4.30;99.90
11043;DHT22;5574;48.786;10.120;2023-12-04T04:07:46;-4.30;99.90
11043;DHT22;5574;48.786;10.120;2023-12-04T04:10:12;-4.40;99.90
11043;DHT22;5574;48.786;10.120;2023-12-04T04:12:39;-4.40;99.90
11043;DHT22;5574;48.786;10.120;2023-12-04T04:15:06;-4.40;99.80
11043;DHT22;5574;48.786;10.120;2023-12-04T04:17:33;-4.50;99.80
11043;DHT22;5574;48.786;10.120;2023-12-04T04:20:00;-4.40;99.90
11043;DHT22;5574;48.786;10.120;2023-12-04T04:22:28;-4.40;99.90
11043;DHT22;5574;48.786;10.120;2023-12-04T04:24:55;-4.40;99.90
11043;DHT22;5574;48.786;10.120;2023-12-04T04:27:22;-4.40;99.90
11043;DHT22;5574;48.786;10.120;2023-12-04T04:29:49;-4.40;99.80
11043;DHT22;5574;48.786;10.120;2023-12-04T04:32:15;-4.40;99.90
11043;DHT22;5574;48.786;10.120;2023-12-04T04:34:42;-4.30;99.80
11043;DHT22;5574;48.786;10.120;2023-12-04T04:37:08;-4.30;99.70
11043;DHT22;5574;48.786;10.120;2023-12-04T04:39:36;-4.30;99.70
11043;DHT22;5574;48.786;10.120;2023-12-04T04:42:04;-4.30;99.40
11043;DHT22;5574;48.786;10.120;2023-12-04T04:44:30;-4.30;99.40
11043;DHT22;5574;48.786;10.120;2023-12-04T04:46:57;-4.30;99.30
11043;DHT22;5574;48.786;10.120;2023-12-04T04:49:24;-4.40;99.10
11043;DHT22;5574;48.786;10.120;2023-12-04T04:51:50;-4.30;99.30
11043;DHT22;5574;48.786;10.120;2023-12-04T04:54:17;-4.30;99.40
11043;DHT22;5574;48.786;10.120;2023-12-04T04:56:46;-4.30;99.30
11043;DHT22;5574;48.786;10.120;2023-12-04T04:59:13;-4.30;99.20
11043;DHT22;5574;48.786;10.120;2023-12-04T05:01:39;-4.40;99.20
11043;DHT22;5574;48.786;10.120;2023-12-04T05:04:06;-4.40;99.30
11043;DHT22;5574;48.786;10.120;2023-12-04T05:06:33;-4.30;99.40
11043;DHT22;5574;48.786;10.120;2023-12-04T05:08:59;-4.40;99.20
11043;DHT22;5574;48.786;10.120;2023-12-04T05:11:26;-4.40;99.30
11043;DHT22;5574;48.786;10.120;2023-12-04T05:13:54;-4.40;99.30
11043;DHT22;5574;48.786;10.120;2023-12-04T05:16:21;-4.40;99.30
11043;DHT22;5574;48.786;10.120;2023-12-04T05:18:47;-4.40;99.30
11043;DHT22;5574;48.786;10.120;2023-12-04T05:21:14;-4.40;99.20
11043;DHT22;5574;48.786;10.120;2023-12-04T05:23:41;-4.40;99.30
11043;DHT22;5574;48.786;10.120;2023-12-04T05:26:08;-4.40;99.30
11043;DHT22;5574;48.786;10.120;2023-12-04T05:28:35;-4.40;99.10
11043;DHT22;5574;48.786;10.120;2023-12-04T05:31:03;-4.40;99.10
11043;DHT22;5574;48.786;10.120;2023-12-04T05:33:30;-4.40;99.10
11043;DHT22;5574;48.786;10.120;2023-12-04T05:35:56;-4.40;99.10
11043;DHT22;5574;48.786;10.120;2023-12-04T05:38:23;-4.40;99.10
11043;DHT22;5574;48.786;10.120;2023-12-04T05:40:50;-4.40;98.90
11043;DHT22;5574;48.786;10.120;2023-12-04T05:43:16;-4.40;99.10
11043;DHT22;5574;48.786;10.120;2023-12-04T05:45:44;-4.40;98.70
11043;DHT22;5574;48.786;10.120;2023-12-04T05:48:12;-4.40;98.80
11043;DHT22;5574;48.786;10.120;2023-12-04T05:50:39;-4.50;98.80
11043;DHT22;5574;48.786;10.120;2023-12-04T05:53:06;-4.50;98.80
11043;DHT22;5574;48.786;10.120;2023-12-04T05:55:33;-4.60;99.10
11043;DHT22;5574;48.786;10.120;2023-12-04T05:58:00;-4.60;99.00
11043;DHT22;5574;48.786;10.120;2023-12-04T06:00:27;-4.60;98.70
11043;DHT22;5574;48.786;10.120;2023-12-04T06:02:54;-4.70;98.80
11043;DHT22;5574;48.786;10.120;2023-12-04T06:05:22;-4.60;98.80
11043;DHT22;5574;48.786;10.120;2023-12-04T06:07:49;-4.70;98.80
11043;DHT22;5574;48.786;10.120;2023-12-04T06:10:16;-4.70;98.50
11043;DHT22;5574;48.786;10.120;2023-12-04T06:12:43;-4.60;98.90
11043;DHT22;5574;48.786;10.120;2023-12-04T06:15:10;-4.70;98.80
11043;DHT22;5574;48.786;10.120;2023-12-04T06:17:37;-4.70;98.40
11043;DHT22;5574;48.786;10.120;2023-12-04T06:20:05;-4.70;98.60
11043;DHT22;5574;48.786;10.120;2023-12-04T06:22:34;-4.70;98.40
11043;DHT22;5574;48.786;10.120;2023-12-04T06:25:02;-4.70;98.70
11043;DHT22;5574;48.786;10.120;2023-12-04T06:27:29;-4.70;98.60
11043;DHT22;5574;48.786;10.120;2023-12-04T06:29:56;-4.70;98.40
11043;DHT22;5574;48.786;10.120;2023-12-04T06:32:24;-4.80;98.30
11043;DHT22;5574;48.786;10.120;2023-12-04T06:34:51;-4.80;98.10
11043;DHT22;5574;48.786;10.120;2023-12-04T06:37:19;-4.80;98.50
11043;DHT22;5574;48.786;10.120;2023-12-04T06:39:48;-4.80;98.30
11043;DHT22;5574;48.786;10.120;2023-12-04T06:42:16;-4.80;98.30
11043;DHT22;5574;48.786;10.120;2023-12-04T06:44:44;-4.80;98.60
11043;DHT22;5574;48.786;10.120;2023-12-04T06:47:12;-4.80;98.50
11043;DHT22;5574;48.786;10.120;2023-12-04T06:49:39;-4.80;98.40
11043;DHT22;5574;48.786;10.120;2023-12-04T06:52:05;-4.80;98.30
11043;DHT22;5574;48.786;10.120;2023-12-04T06:54:32;-4.90;97.90
11043;DHT22;5574;48.786;10.120;2023-12-04T06:57:00;-5.00;98.10
11043;DHT22;5574;48.786;10.120;2023-12-04T06:59:27;-4.90;98.50
11043;DHT22;5574;48.786;10.120;2023-12-04T07:01:54;-4.90;98.40
11043;DHT22;5574;48.786;10.120;2023-12-04T07:04:21;-5.00;98.40
11043;DHT22;5574;48.786;10.120;2023-12-04T07:06:48;-5.00;98.20
11043;DHT22;5574;48.786;10.120;2023-12-04T07:09:15;-5.00;98.00
11043;DHT22;5574;48.786;10.120;2023-12-04T07:11:43;-4.90;98.40
11043;DHT22;5574;48.786;10.120;2023-12-04T07:14:11;-4.90;97.90
11043;DHT22;5574;48.786;10.120;2023-12-04T07:16:41;-4.90;97.90
11043;DHT22;5574;48.786;10.120;2023-12-04T07:19:08;-4.90;97.70
11043;DHT22;5574;48.786;10.120;2023-12-04T07:21:35;-4.80;98.00
11043;DHT22;5574;48.786;10.120;2023-12-04T07:24:03;-4.80;98.00
11043;DHT22;5574;48.786;10.120;2023-12-04T07:26:30;-4.80;97.80
11043;DHT22;5574;48.786;10.120;2023-12-04T07:28:57;-4.70;97.80
11043;DHT22;5574;48.786;10.120;2023-12-04T07:31:25;-4.70;98.20
11043;DHT22;5574;48.786;10.120;2023-12-04T07:33:52;-4.70;98.10
11043;DHT22;5574;48.786;10.120;2023-12-04T07:36:19;-4.70;97.90
11043;DHT22;5574;48.786;10.120;2023-12-04T07:38:46;-4.70;97.80
11043;DHT22;5574;48.786;10.120;2023-12-04T07:41:13;-4.70;98.30
11043;DHT22;5574;48.786;10.120;2023-12-04T07:43:40;-4.60;98.50
11043;DHT22;5574;48.786;10.120;2023-12-04T07:46:09;-4.70;98.40
11043;DHT22;5574;48.786;10.120;2023-12-04T07:48:38;-4.60;98.20
11043;DHT22;5574;48.786;10.120;2023-12-04T07:51:05;-4.70;98.00
11043;DHT22;5574;48.786;10.120;2023-12-04T07:53:32;-4.70;98.70
11043;DHT22;5574;48.786;10.120;2023-12-04T07:56:00;-4.70;98.40
11043;DHT22;5574;48.786;10.120;2023-12-04T07:58:28;-4.70;98.70
11043;DHT22;5574;48.786;10.120;2023-12-04T08:00:54;-4.60;98.50
11043;DHT22;5574;48.786;10.120;2023-12-04T08:03:21;-4.60;98.50
11043;DHT22;5574;48.786;10.120;2023-12-04T08:05:50;-4.50;98.90
11043;DHT22;5574;48.786;10.120;2023-12-04T08:08:17;-4.50;99.10
11043;DHT22;5574;48.786;10.120;2023-12-04T08:10:43;-4.40;98.90
11043;DHT22;5574;48.786;10.120;2023-12-04T08:13:10;-4.50;98.20
11043;DHT22;5574;48.786;10.120;2023-12-04T08:15:37;-4.50;98.40
11043;DHT22;5574;48.786;10.120;2023-12-04T08:18:04;-4.60;98.10
11043;DHT22;5574;48.786;10.120;2023-12-04T08:20:30;-4.50;98.30
11043;DHT22;5574;48.786;10.120;2023-12-04T08:22:59;-4.50;98.30
11043;DHT22;5574;48.786;10.120;2023-12-04T08:25:26;-4.50;98.10
11043;DHT22;5574;48.786;10.120;2023-12-04T08:27:53;-4.50;98.40
11043;DHT22;5574;48.786;10.120;2023-12-04T08:30:20;-4.40;98.20
11043;DHT22;5574;48.786;10.120;2023-12-04T08:32:46;-4.50;98.30
11043;DHT22;5574;48.786;10.120;2023-12-04T08:35:13;-4.40;98.70
11043;DHT22;5574;48.786;10.120;2023-12-04T08:37:40;-4.30;98.20
11043;DHT22;5574;48.786;10.120;2023-12-04T08:40:09;-4.30;98.30
11043;DHT22;5574;48.786;10.120;2023-12-04T08:42:37;-4.10;98.10
11043;DHT22;5574;48.786;10.120;2023-12-04T08:45:05;-4.10;98.00
11043;DHT22;5574;48.786;10.120;2023-12-04T08:47:32;-4.00;98.20
11043;DHT22;5574;48.786;10.120;2023-12-04T08:49:59;-3.90;98.40
11043;DHT22;5574;48.786;10.120;2023-12-04T08:52:26;-3.90;98.20
11043;DHT22;5574;48.786;10.120;2023-12-04T08:54:53;-3.90;98.20
11043;DHT22;5574;48.786;10.120;2023-12-04T08:57:21;-3.80;97.90
11043;DHT22;5574;48.786;10.120;2023-12-04T08:59:49;-3.80;97.70
11043;DHT22;5574;48.786;10.120;2023-12-04T09:02:15;-3.90;97.60
11043;DHT22;5574;48.786;10.120;2023-12-04T09:04:42;-3.70;98.00
11043;DHT22;5574;48.786;10.120;2023-12-04T09:07:09;-3.70;97.90
11043;DHT22;5574;48.786;10.120;2023-12-04T09:09:36;-3.70;98.00
11043;DHT22;5574;48.786;10.120;2023-12-04T09:12:02;-3.70;98.30
11043;DHT22;5574;48.786;10.120;2023-12-04T09:14:30;-3.70;98.10
11043;DHT22;5574;48.786;10.120;2023-12-04T09:16:58;-3.60;98.70
11043;DHT22;5574;48.786;10.120;2023-12-04T09:19:24;-3.60;98.20
11043;DHT22;5574;48.786;10.120;2023-12-04T09:21:51;-3.60;98.40
11043;DHT22;5574;48.786;10.120;2023-12-04T09:24:18;-3.60;98.50
11043;DHT22;5574;48.786;10.120;2023-12-04T09:26:44;-3.60;98.20
11043;DHT22;5574;48.786;10.120;2023-12-04T09:29:11;-3.50;98.70
11043;DHT22;5574;48.786;10.120;2023-12-04T09:31:40;-3.50;98.70
11043;DHT22;5574;48.786;10.120;2023-12-04T09:34:06;-3.40;98.60
11043;DHT22;5574;48.786;10.120;2023-12-04T09:36:33;-3.20;98.90
11043;DHT22;5574;48.786;10.120;2023-12-04T09:39:00;-3.20;98.90
11043;DHT22;5574;48.786;10.120;2023-12-04T09:41:29;-3.10;98.50
11043;DHT22;5574;48.786;10.120;2023-12-04T09:43:57;-3.20;98.90
11043;DHT22;5574;48.786;10.120;2023-12-04T09:46:24;-3.20;98.70
11043;DHT22;5574;48.786;10.120;2023-12-04T09:48:54;-3.20;98.70
11043;DHT22;5574;48.786;10.120;2023-12-04T09:51:21;-3.20;98.90
11043;DHT22;5574;48.786;10.120;2023-12-04T09:53:49;-3.20;98.90
11043;DHT22;5574;48.786;10.120;2023-12-04T09:56:16;-3.20;98.70
11043;DHT22;5574;48.786;10.120;2023-12-04T09:58:44;-3.20;98.70
11043;DHT22;5574;48.786;10.120;2023-12-04T10:01:11;-3.10;98.70
11043;DHT22;5574;48.786;10.120;2023-12-04T10:03:40;-3.10;98.70
11043;DHT22;5574;48.786;10.120;2023-12-04T10:06:10;-3.10;98.90
11043;DHT22;5574;48.786;10.120;2023-12-04T10:08:42;-3.00;98.70
11043;DHT22;5574;48.786;10.120;2023-12-04T10:11:10;-3.00;98.70
11043;DHT22;5574;48.786;10.120;2023-12-04T10:13:36;-3.00;99.20
11043;DHT22;5574;48.786;10.120;2023-12-04T10:16:04;-3.00;99.00
11043;DHT22;5574;48.786;10.120;2023-12-04T10:18:31;-3.00;99.10
11043;DHT22;5574;48.786;10.120;2023-12-04T10:20:59;-3.00;98.50
11043;DHT22;5574;48.786;10.120;2023-12-04T10:23:38;-3.00;99.20
11043;DHT22;5574;48.786;10.120;2023-12-04T10:26:05;-3.00;98.80
11043;DHT22;5574;48.786;10.120;2023-12-04T10:28:33;-2.90;99.50
11043;DHT22;5574;48.786;10.120;2023-12-04T10:31:00;-2.70;99.60
11043;DHT22;5574;48.786;10.120;2023-12-04T10:33:28;-2.70;99.10
11043;DHT22;5574;48.786;10.120;2023-12-04T10:35:56;-2.70;99.30
11043;DHT22;5574;48.786;10.120;2023-12-04T10:38:23;-2.60;99.60
11043;DHT22;5574;48.786;10.120;2023-12-04T10:40:53;-2.60;99.40
11043;DHT22;5574;48.786;10.120;2023-12-04T10:43:22;-2.50;98.80
11043;DHT22;5574;48.786;10.120;2023-12-04T10:45:50;-2.50;99.30
11043;DHT22;5574;48.786;10.120;2023-12-04T10:48:18;-2.60;98.80
11043;DHT22;5574;48.786;10.120;2023-12-04T10:50:46;-2.50;98.80
11043;DHT22;5574;48.786;10.120;2023-12-04T10:53:14;-2.50;99.10
11043;DHT22;5574;48.786;10.120;2023-12-04T10:55:41;-2.50;99.20
11043;DHT22;5574;48.786;10.120;2023-12-04T10:58:10;-2.50;98.80
11043;DHT22;5574;48.786;10.120;2023-12-04T11:00:40;-2.50;99.00
11043;DHT22;5574;48.786;10.120;2023-12-04T11:03:08;-2.40;98.80
11043;DHT22;5574;48.786;10.120;2023-12-04T11:05:37;-2.40;99.10
11043;DHT22;5574;48.786;10.120;2023-12-04T11:08:06;-2.30;98.70
11043;DHT22;5574;48.786;10.120;2023-12-04T11:10:33;-2.10;99.00
11043;DHT22;5574;48.786;10.120;2023-12-04T11:13:08;-1.90;99.10
11043;DHT22;5574;48.786;10.120;2023-12-04T11:15:40;-1.80;98.90
11043;DHT22;5574;48.786;10.120;2023-12-04T11:18:07;-1.80;98.10
11043;DHT22;5574;48.786;10.120;2023-12-04T11:20:39;-1.80;98.50
11043;DHT22;5574;48.786;10.120;2023-12-04T11:23:08;-1.70;98.70
11043;DHT22;5574;48.786;10.120;2023-12-04T11:25:35;-1.70;99.10
11043;DHT22;5574;48.786;10.120;2023-12-04T11:28:02;-1.70;99.90
11043;DHT22;5574;48.786;10.120;2023-12-04T11:30:30;-1.60;99.90
11043;DHT22;5574;48.786;10.120;2023-12-04T11:33:00;-1.50;99.90
11043;DHT22;5574;48.786;10.120;2023-12-04T11:35:26;-1.50;99.90
11043;DHT22;5574;48.786;10.120;2023-12-04T11:37:54;-1.40;99.90
11043;DHT22;5574;48.786;10.120;2023-12-04T11:40:20;-1.40;99.90
11043;DHT22;5574;48.786;10.120;2023-12-04T11:42:47;-1.40;99.90
11043;DHT22;5574;48.786;10.120;2023-12-04T11:45:18;-1.50;99.90
11043;DHT22;5574;48.786;10.120;2023-12-04T11:47:49;-1.40;99.90
11043;DHT22;5574;48.786;10.120;2023-12-04T11:50:18;-1.40;99.90
11043;DHT22;5574;48.786;10.120;2023-12-04T11:52:45;-1.40;98.90
11043;DHT22;5574;48.786;10.120;2023-12-04T11:55:16;-1.30;99.30
11043;DHT22;5574;48.786;10.120;2023-12-04T11:57:43;-1.30;99.90
11043;DHT22;5574;48.786;10.120;2023-12-04T12:00:20;-1.20;99.90
11043;DHT22;5574;48.786;10.120;2023-12-04T12:02:49;-1.20;99.90
11043;DHT22;5574;48.786;10.120;2023-12-04T12:05:28;-1.10;99.60
11043;DHT22;5574;48.786;10.120;2023-12-04T12:07:55;-1.00;99.90
11043;DHT22;5574;48.786;10.120;2023-12-04T12:10:22;-1.00;99.80
11043;DHT22;5574;48.786;10.120;2023-12-04T12:12:48;-1.00;99.10
11043;DHT22;5574;48.786;10.120;2023-12-04T12:15:15;-1.00;99.60
11043;DHT22;5574;48.786;10.120;2023-12-04T12:17:42;-1.00;99.50
11043;DHT22;5574;48.786;10.120;2023-12-04T12:20:11;-1.00;99.40
11043;DHT22;5574;48.786;10.120;2023-12-04T12:22:40;-1.00;99.40
11043;DHT22;5574;48.786;10.120;2023-12-04T12:25:10;-1.00;99.70
11043;DHT22;5574;48.786;10.120;2023-12-04T12:27:37;-1.10;99.70
11043;DHT22;5574;48.786;10.120;2023-12-04T12:30:05;-1.00;99.90
11043;DHT22;5574;48.786;10.120;2023-12-04T12:32:32;-1.00;99.30
11043;DHT22;5574;48.786;10.120;2023-12-04T12:34:59;-1.10;99.60
11043;DHT22;5574;48.786;10.120;2023-12-04T12:37:26;-1.10;99.80
11043;DHT22;5574;48.786;10.120;2023-12-04T12:39:54;-1.20;99.90
11043;DHT22;5574;48.786;10.120;2023-12-04T12:42:21;-1.20;99.90
11043;DHT22;5574;48.786;10.120;2023-12-04T12:44:48;-1.20;99.90
11043;DHT22;5574;48.786;10.120;2023-12-04T12:47:15;-1.30;99.90
11043;DHT22;5574;48.786;10.120;2023-12-04T12:49:42;-1.30;99.90
11043;DHT22;5574;48.786;10.120;2023-12-04T12:52:10;-1.40;99.90
11043;DHT22;5574;48.786;10.120;2023-12-04T12:54:37;-1.40;99.90
11043;DHT22;5574;48.786;10.120;2023-12-04T12:57:05;-1.30;99.90
11043;DHT22;5574;48.786;10.120;2023-12-04T12:59:33;-1.30;99.90
11043;DHT22;5574;48.786;10.120;2023-12-04T13:02:00;-1.30;99.90
11043;DHT22;5574;48.786;10.120;2023-12-04T13:04:33;-1.20;99.90
11043;DHT22;5574;48.786;10.120;2023-12-04T13:07:00;-1.20;99.90
11043;DHT22;5574;48.786;10.120;2023-12-04T13:09:26;-1.20;99.90
11043;DHT22;5574;48.786;10.120;2023-12-04T13:11:53;-1.20;99.90
11043;DHT22;5574;48.786;10.120;2023-12-04T13:14:21;-1.20;99.90
11043;DHT22;5574;48.786;10.120;2023-12-04T13:16:48;-1.30;99.90
11043;DHT22;5574;48.786;10.120;2023-12-04T13:19:15;-1.20;99.90
11043;DHT22;5574;48.786;10.120;2023-12-04T13:21:43;-1.20;99.90
11043;DHT22;5574;48.786;10.120;2023-12-04T13:24:10;-1.20;99.90
11043;DHT22;5574;48.786;10.120;2023-12-04T13:26:37;-1.20;99.90
11043;DHT22;5574;48.786;10.120;2023-12-04T13:29:04;-1.10;99.90
11043;DHT22;5574;48.786;10.120;2023-12-04T13:31:33;-1.00;99.90
11043;DHT22;5574;48.786;10.120;2023-12-04T13:34:00;-1.10;99.90
11043;DHT22;5574;48.786;10.120;2023-12-04T13:36:28;-1.00;99.90
11043;DHT22;5574;48.786;10.120;2023-12-04T13:38:55;-1.10;99.90
11043;DHT22;5574;48.786;10.120;2023-12-04T13:41:22;-1.10;99.90
11043;DHT22;5574;48.786;10.120;2023-12-04T13:44:06;-1.20;99.90
11043;DHT22;5574;48.786;10.120;2023-12-04T13:46:34;-1.30;99.90
11043;DHT22;5574;48.786;10.120;2023-12-04T13:49:01;-1.30;99.90
11043;DHT22;5574;48.786;10.120;2023-12-04T13:51:28;-1.30;99.90
11043;DHT22;5574;48.786;10.120;2023-12-04T13:53:54;-1.30;99.90
11043;DHT22;5574;48.786;10.120;2023-12-04T13:56:28;-1.60;99.80
11043;DHT22;5574;48.786;10.120;2023-12-04T13:59:07;-1.70;99.60
11043;DHT22;5574;48.786;10.120;2023-12-04T14:01:43;-1.70;99.90
11043;DHT22;5574;48.786;10.120;2023-12-04T14:04:10;-1.70;99.90
11043;DHT22;5574;48.786;10.120;2023-12-04T14:06:37;-1.80;99.90
11043;DHT22;5574;48.786;10.120;2023-12-04T14:09:04;-1.80;99.90
11043;DHT22;5574;48.786;10.120;2023-12-04T14:11:35;-1.90;99.80
11043;DHT22;5574;48.786;10.120;2023-12-04T14:14:02;-1.80;99.90
11043;DHT22;5574;48.786;10.120;2023-12-04T14:16:28;-1.90;99.90
11043;DHT22;5574;48.786;10.120;2023-12-04T14:18:56;-1.90;99.90
11043;DHT22;5574;48.786;10.120;2023-12-04T14:21:23;-1.90;99.90
11043;DHT22;5574;48.786;10.120;2023-12-04T14:23:50;-1.90;99.90
11043;DHT22;5574;48.786;10.120;2023-12-04T14:26:17;-2.00;99.90
11043;DHT22;5574;48.786;10.120;2023-12-04T14:28:43;-2.00;99.90
11043;DHT22;5574;48.786;10.120;2023-12-04T14:31:10;-2.00;99.90
11043;DHT22;5574;48.786;10.120;2023-12-04T14:33:37;-2.00;99.90
11043;DHT22;5574;48.786;10.120;2023-12-04T14:36:06;-2.00;99.90
11043;DHT22;5574;48.786;10.120;2023-12-04T14:38:32;-2.00;99.90
11043;DHT22;5574;48.786;10.120;2023-12-04T14:41:00;-2.10;99.90
11043;DHT22;5574;48.786;10.120;2023-12-04T14:43:27;-2.10;99.90
11043;DHT22;5574;48.786;10.120;2023-12-04T14:45:54;-2.20;99.90
11043;DHT22;5574;48.786;10.120;2023-12-04T14:48:20;-2.10;99.90
11043;DHT22;5574;48.786;10.120;2023-12-04T14:50:47;-2.20;99.90
11043;DHT22;5574;48.786;10.120;2023-12-04T14:53:15;-2.20;99.90
11043;DHT22;5574;48.786;10.120;2023-12-04T14:55:53;-2.30;99.90
11043;DHT22;5574;48.786;10.120;2023-12-04T14:58:52;-2.20;99.90
11043;DHT22;5574;48.786;10.120;2023-12-04T15:01:55;-2.20;99.90
11043;DHT22;5574;48.786;10.120;2023-12-04T15:04:42;-2.20;99.90
11043;DHT22;5574;48.786;10.120;2023-12-04T15:07:40;-2.30;99.90
11043;DHT22;5574;48.786;10.120;2023-12-04T15:10:30;-2.20;99.90
11043;DHT22;5574;48.786;10.120;2023-12-04T15:13:13;-2.20;99.90
11043;DHT22;5574;48.786;10.120;2023-12-04T15:16:05;-2.20;99.90
11043;DHT22;5574;48.786;10.120;2023-12-04T15:18:51;-2.20;99.90
11043;DHT22;5574;48.786;10.120;2023-12-04T15:21:46;-2.30;99.90
11043;DHT22;5574;48.786;10.120;2023-12-04T15:24:12;-2.30;99.90
11043;DHT22;5574;48.786;10.120;2023-12-04T15:26:40;-2.30;99.90
11043;DHT22;5574;48.786;10.120;2023-12-04T15:29:06;-2.30;99.90
11043;DHT22;5574;48.786;10.120;2023-12-04T15:31:33;-2.30;99.90
11043;DHT22;5574;48.786;10.120;2023-12-04T15:33:59;-2.30;99.90
11043;DHT22;5574;48.786;10.120;2023-12-04T15:36:25;-2.30;99.90